馬祖南竿航空站 - ATIS

METAR RCFG 170400Z 01017KT 9999 SCT010 BKN030 29/26 Q1005 NOSIG RMK 04020G33KT/R21 MAX WND 25KT/R03 01016KT/NJL QFF 1004.7HPA A2968(L)=

站台狀態:Online
最後更新:2019-07-17 12:30:02